Time;durP1;ratioP1;P1;durP2;ratioP2;P2;SDS_P1;SDS_P2;PMS_P1;PMS_P2;Temp;Humidity;BMP_temperature;BMP_pressure;BME280_temperature;BME280_humidity;BME280_pressure;Samples;Min_cycle;Max_cycle;Signal;HPM_P1;HPM_P2
2022/08/07 00:00:11;;;;;;;4.50;2.83;;;19.50;46.30;;;;;;5077336;28;20302;-46
2022/08/07 00:02:37;;;;;;;2.33;1.67;;;19.60;46.50;;;;;;5075639;28;20211;-46
2022/08/07 00:05:03;;;;;;;3.17;2.00;;;19.60;46.50;;;;;;5074918;28;20462;-46
2022/08/07 00:07:28;;;;;;;2.37;1.70;;;19.60;46.70;;;;;;5075241;28;20457;-45
2022/08/07 00:09:54;;;;;;;1.73;1.63;;;19.60;46.80;;;;;;5075275;28;20436;-44
2022/08/07 00:12:20;;;;;;;2.60;1.67;;;19.60;46.90;;;;;;5077602;28;20202;-46
2022/08/07 00:14:45;;;;;;;1.90;1.70;;;19.50;46.70;;;;;;5076630;28;20175;-45
2022/08/07 00:17:11;;;;;;;1.93;1.70;;;19.50;47.00;;;;;;5076356;28;20211;-47
2022/08/07 00:19:37;;;;;;;2.40;1.70;;;19.50;47.00;;;;;;5076144;28;20183;-47
2022/08/07 00:22:03;;;;;;;2.50;1.57;;;19.40;47.40;;;;;;5075481;28;20420;-44
2022/08/07 00:24:28;;;;;;;2.60;1.60;;;19.30;47.20;;;;;;5075203;28;20222;-46
2022/08/07 00:26:54;;;;;;;2.70;1.90;;;19.30;47.40;;;;;;5075395;28;20191;-46
2022/08/07 00:29:24;;;;;;;2.90;1.93;;;19.30;47.60;;;;;;5075553;28;20220;-45
2022/08/07 00:31:51;;;;;;;3.10;1.70;;;19.30;47.60;;;;;;5075186;28;20476;-43
2022/08/07 00:34:17;;;;;;;2.43;1.80;;;19.20;47.50;;;;;;5074116;28;20435;-45
2022/08/07 00:36:43;;;;;;;1.70;1.60;;;19.20;47.30;;;;;;5075823;28;20405;-45
2022/08/07 00:39:09;;;;;;;2.60;2.20;;;19.30;47.60;;;;;;5076080;28;20595;-45
2022/08/07 00:41:35;;;;;;;2.53;1.87;;;19.30;47.70;;;;;;5075760;28;20741;-47
2022/08/07 00:44:00;;;;;;;2.13;1.87;;;19.10;48.00;;;;;;5074099;28;20443;-45
2022/08/07 00:46:26;;;;;;;2.03;1.83;;;19.10;48.10;;;;;;5076014;28;20175;-45
2022/08/07 00:48:52;;;;;;;2.30;1.60;;;19.10;48.00;;;;;;5076029;28;20241;-43
2022/08/07 00:51:17;;;;;;;2.23;2.03;;;19.00;48.10;;;;;;5074921;28;20626;-44
2022/08/07 00:53:43;;;;;;;3.60;2.20;;;19.10;48.30;;;;;;5075384;28;20185;-44
2022/08/07 00:56:11;;;;;;;1.90;1.60;;;19.00;48.00;;;;;;5076133;28;20466;-44
2022/08/07 00:58:39;;;;;;;4.10;2.03;;;19.10;48.10;;;;;;5076974;28;20191;-46
2022/08/07 01:01:05;;;;;;;2.27;1.87;;;19.00;47.80;;;;;;5077548;28;20488;-47
2022/08/07 01:03:31;;;;;;;2.07;1.70;;;19.00;47.90;;;;;;5077235;28;20726;-44
2022/08/07 01:05:57;;;;;;;2.17;1.70;;;19.00;48.00;;;;;;5075157;28;20189;-43
2022/08/07 01:08:22;;;;;;;2.23;1.30;;;19.10;48.10;;;;;;5075949;28;20726;-45
2022/08/07 01:10:48;;;;;;;2.60;1.77;;;19.10;48.10;;;;;;5074882;28;20474;-43
2022/08/07 01:13:14;;;;;;;3.00;1.90;;;19.20;48.20;;;;;;5076032;28;20488;-43
2022/08/07 01:15:41;;;;;;;2.70;1.70;;;19.10;48.10;;;;;;5075655;28;20626;-46
2022/08/07 01:18:06;;;;;;;2.47;1.90;;;19.10;48.40;;;;;;5075238;28;20510;-45
2022/08/07 01:20:36;;;;;;;3.30;1.73;;;19.20;48.50;;;;;;5076971;28;20588;-44
2022/08/07 01:23:02;;;;;;;2.07;1.83;;;19.10;48.50;;;;;;5076519;28;20255;-45
2022/08/07 01:25:28;;;;;;;2.43;1.87;;;19.00;48.70;;;;;;5075810;28;20505;-46
2022/08/07 01:27:55;;;;;;;2.20;1.73;;;19.00;48.90;;;;;;5077573;28;20276;-46
2022/08/07 01:30:21;;;;;;;2.53;1.57;;;19.10;49.00;;;;;;5075935;28;20878;-45
2022/08/07 01:32:47;;;;;;;2.47;1.83;;;19.10;49.00;;;;;;5077015;28;20680;-45
2022/08/07 01:35:12;;;;;;;2.80;1.97;;;19.00;49.10;;;;;;5075015;28;20527;-44
2022/08/07 01:37:38;;;;;;;2.33;1.67;;;18.90;49.90;;;;;;5076828;28;20193;-48
2022/08/07 01:40:05;;;;;;;2.87;1.70;;;18.90;50.00;;;;;;5075095;28;20207;-44
2022/08/07 01:42:31;;;;;;;2.37;1.80;;;19.00;50.00;;;;;;5075766;28;20426;-46
2022/08/07 01:44:57;;;;;;;2.13;1.80;;;18.90;50.10;;;;;;5075748;28;20533;-46
2022/08/07 01:47:23;;;;;;;2.43;1.80;;;18.90;50.20;;;;;;5080167;28;20816;-49
2022/08/07 01:49:49;;;;;;;1.60;1.50;;;18.90;50.10;;;;;;5080322;28;20209;-45
2022/08/07 01:52:14;;;;;;;1.73;1.63;;;18.90;50.10;;;;;;5079024;28;20461;-45
2022/08/07 01:54:51;;;;;;;3.10;1.90;;;18.90;50.00;;;;;;5079799;28;20236;-45
2022/08/07 01:57:20;;;;;;;2.17;1.80;;;18.90;50.20;;;;;;5079157;28;20424;-46
2022/08/07 01:59:53;;;;;;;2.13;1.70;;;18.90;50.30;;;;;;5079553;28;20416;-46
2022/08/07 02:02:33;;;;;;;3.40;1.90;;;18.80;50.20;;;;;;5080349;28;20524;-45
2022/08/07 02:05:03;;;;;;;3.37;1.87;;;18.70;50.30;;;;;;5080679;28;20493;-48
2022/08/07 02:07:33;;;;;;;2.30;1.90;;;18.60;50.40;;;;;;5080157;28;20440;-44
2022/08/07 02:10:00;;;;;;;2.20;1.83;;;18.60;50.60;;;;;;5079221;28;20887;-45
2022/08/07 02:12:27;;;;;;;1.90;1.70;;;18.40;50.60;;;;;;5079170;28;20480;-45
2022/08/07 02:14:56;;;;;;;2.63;1.60;;;18.30;50.80;;;;;;5080177;28;20880;-47
2022/08/07 02:17:22;;;;;;;2.80;2.23;;;18.20;50.90;;;;;;5080134;28;20427;-46
2022/08/07 02:19:49;;;;;;;4.40;1.90;;;18.20;51.10;;;;;;5079562;28;20926;-49
2022/08/07 02:22:18;;;;;;;2.23;2.03;;;18.20;51.10;;;;;;5078324;28;20453;-46
2022/08/07 02:24:45;;;;;;;3.27;2.40;;;18.20;51.10;;;;;;5079187;28;20416;-45
2022/08/07 02:27:14;;;;;;;4.07;2.03;;;18.20;51.00;;;;;;5079581;28;20440;-46
2022/08/07 02:29:40;;;;;;;4.30;2.33;;;18.10;51.10;;;;;;5079510;28;20497;-47
2022/08/07 02:32:08;;;;;;;2.87;2.10;;;18.10;51.20;;;;;;5079214;28;20479;-48
2022/08/07 02:34:35;;;;;;;4.03;1.97;;;18.10;51.30;;;;;;5078731;28;20410;-45
2022/08/07 02:37:04;;;;;;;2.23;1.73;;;18.10;51.50;;;;;;5078803;28;20439;-44
2022/08/07 02:39:31;;;;;;;3.00;2.20;;;18.10;51.30;;;;;;5078405;28;20683;-47
2022/08/07 02:41:57;;;;;;;2.37;1.90;;;18.10;51.40;;;;;;5078890;28;20426;-46
2022/08/07 02:44:23;;;;;;;4.63;2.30;;;18.10;51.20;;;;;;5079450;28;20409;-45
2022/08/07 02:46:51;;;;;;;2.10;1.90;;;18.10;51.80;;;;;;5079108;28;20466;-46
2022/08/07 02:49:17;;;;;;;2.70;1.90;;;18.00;51.50;;;;;;5079923;28;20441;-47
2022/08/07 02:51:43;;;;;;;2.43;2.00;;;18.00;51.60;;;;;;5078970;28;20472;-45
2022/08/07 02:54:10;;;;;;;1.90;1.67;;;18.10;51.70;;;;;;5078135;28;20233;-45
2022/08/07 02:56:38;;;;;;;3.70;2.27;;;18.10;51.70;;;;;;5078446;28;20475;-44
2022/08/07 02:59:06;;;;;;;2.30;1.80;;;18.10;51.60;;;;;;5078389;28;20404;-44
2022/08/07 03:01:32;;;;;;;2.43;2.17;;;18.10;51.50;;;;;;5077688;28;20445;-45
2022/08/07 03:03:58;;;;;;;3.23;2.43;;;18.10;51.50;;;;;;5079436;28;20799;-46
2022/08/07 03:06:24;;;;;;;2.03;1.83;;;18.10;51.50;;;;;;5078179;28;20517;-46
2022/08/07 03:08:50;;;;;;;2.10;1.60;;;18.10;51.20;;;;;;5078141;28;20210;-46
2022/08/07 03:11:16;;;;;;;2.10;1.83;;;17.90;51.40;;;;;;5078750;28;20465;-46
2022/08/07 03:13:42;;;;;;;2.40;1.90;;;17.80;51.70;;;;;;5078683;28;20479;-51
2022/08/07 03:16:08;;;;;;;2.20;1.80;;;17.70;52.00;;;;;;5078095;28;20244;-45
2022/08/07 03:18:34;;;;;;;3.40;2.30;;;17.70;52.10;;;;;;5078212;28;20808;-45
2022/08/07 03:21:00;;;;;;;2.40;2.20;;;17.70;52.20;;;;;;5077467;28;20494;-47
2022/08/07 03:23:27;;;;;;;2.40;2.00;;;17.70;52.20;;;;;;5077378;28;20809;-45
2022/08/07 03:25:54;;;;;;;3.03;2.10;;;17.70;52.20;;;;;;5078578;28;20444;-46
2022/08/07 03:28:20;;;;;;;2.87;1.77;;;17.80;52.30;;;;;;5078868;28;20486;-46
2022/08/07 03:30:46;;;;;;;2.53;2.00;;;17.80;52.20;;;;;;5077512;28;20476;-45
2022/08/07 03:33:13;;;;;;;6.60;2.30;;;17.80;52.10;;;;;;5078720;28;20553;-44
2022/08/07 03:35:39;;;;;;;1.97;1.77;;;17.90;52.20;;;;;;5077381;28;20581;-45
2022/08/07 03:38:07;;;;;;;2.40;2.20;;;17.90;52.10;;;;;;5077707;28;20413;-48
2022/08/07 03:40:33;;;;;;;2.57;1.90;;;17.90;52.10;;;;;;5077595;28;20706;-46
2022/08/07 03:42:59;;;;;;;2.57;1.97;;;17.90;52.10;;;;;;5078476;28;20442;-48
2022/08/07 03:45:26;;;;;;;2.03;1.60;;;17.90;52.10;;;;;;5078618;28;20431;-46
2022/08/07 03:47:52;;;;;;;4.60;1.90;;;17.80;52.00;;;;;;5078185;28;20442;-50
2022/08/07 03:50:19;;;;;;;2.20;1.93;;;17.90;52.10;;;;;;5079381;28;20803;-48
2022/08/07 03:52:45;;;;;;;2.13;1.70;;;17.80;52.10;;;;;;5078584;28;20871;-44
2022/08/07 03:55:11;;;;;;;1.97;1.77;;;17.80;52.30;;;;;;5078162;28;20423;-44
2022/08/07 03:57:37;;;;;;;2.50;2.00;;;17.80;52.30;;;;;;5077652;28;20722;-44
2022/08/07 04:00:03;;;;;;;2.73;2.40;;;17.70;52.50;;;;;;5077738;28;20174;-46
2022/08/07 04:02:29;;;;;;;2.20;2.00;;;17.80;52.50;;;;;;5078355;28;20467;-46
2022/08/07 04:04:55;;;;;;;2.83;1.90;;;17.70;52.50;;;;;;5077346;28;20423;-45
2022/08/07 04:07:21;;;;;;;2.30;2.10;;;17.60;52.50;;;;;;5078362;28;20252;-46
2022/08/07 04:09:46;;;;;;;2.53;2.23;;;17.60;52.80;;;;;;5076732;28;20178;-46
2022/08/07 04:12:13;;;;;;;3.50;2.20;;;17.60;52.80;;;;;;5076011;28;20534;-44
2022/08/07 04:14:39;;;;;;;2.47;1.97;;;17.60;53.60;;;;;;5077259;28;20177;-45
2022/08/07 04:17:05;;;;;;;2.20;2.00;;;17.60;53.20;;;;;;5077396;28;20475;-45
2022/08/07 04:19:31;;;;;;;1.87;1.60;;;17.60;53.20;;;;;;5077574;28;20545;-45
2022/08/07 04:21:57;;;;;;;2.13;1.93;;;17.60;53.20;;;;;;5077091;28;20815;-44
2022/08/07 04:24:23;;;;;;;2.10;1.90;;;17.60;53.10;;;;;;5077586;28;20406;-47
2022/08/07 04:26:49;;;;;;;1.90;1.80;;;17.60;53.10;;;;;;5076884;28;20179;-47
2022/08/07 04:29:14;;;;;;;3.40;2.43;;;17.60;53.30;;;;;;5077952;28;20385;-49
2022/08/07 04:31:40;;;;;;;2.43;2.23;;;17.60;53.30;;;;;;5077966;28;20218;-49
2022/08/07 04:34:06;;;;;;;2.83;2.43;;;17.60;53.40;;;;;;5077814;28;20185;-48
2022/08/07 04:36:33;;;;;;;3.00;2.17;;;17.70;53.40;;;;;;5077856;28;20182;-49
2022/08/07 04:38:59;;;;;;;2.20;1.97;;;17.70;53.30;;;;;;5077185;28;20815;-48
2022/08/07 04:41:25;;;;;;;4.73;2.67;;;17.80;53.20;;;;;;5076459;28;20432;-52
2022/08/07 04:43:52;;;;;;;2.10;1.90;;;17.90;53.00;;;;;;5077110;28;20477;-50
2022/08/07 04:46:37;;;;;;;3.90;1.80;;;17.90;52.90;;;;;;5078059;28;20215;-50
2022/08/07 04:49:36;;;;;;;2.73;1.90;;;17.90;52.80;;;;;;5077097;28;20428;-48
2022/08/07 04:52:32;;;;;;;2.17;1.80;;;18.00;52.70;;;;;;5077674;28;20622;-48
2022/08/07 04:55:16;;;;;;;2.43;1.83;;;18.10;52.80;;;;;;5061487;28;20748;-49
2022/08/07 04:57:44;;;;;;;2.20;1.93;;;18.10;52.50;;;;;;5076374;28;20718;-48
2022/08/07 05:00:13;;;;;;;1.87;1.70;;;18.20;52.30;;;;;;5076012;28;20408;-50
2022/08/07 05:02:57;;;;;;;1.90;1.63;;;18.30;51.90;;;;;;5076983;28;20435;-51
2022/08/07 05:05:42;;;;;;;2.53;1.77;;;18.30;52.00;;;;;;5077263;28;20412;-49
2022/08/07 05:08:43;;;;;;;1.97;1.77;;;18.30;52.00;;;;;;5077548;28;20414;-48
2022/08/07 05:11:30;;;;;;;2.00;1.73;;;18.40;52.00;;;;;;5077645;28;20812;-50
2022/08/07 05:14:05;;;;;;;1.93;1.83;;;18.40;51.70;;;;;;5077185;28;20446;-48
2022/08/07 05:16:32;;;;;;;2.20;2.00;;;18.40;51.80;;;;;;5076612;28;20423;-48
2022/08/07 05:19:19;;;;;;;2.30;2.10;;;18.40;51.70;;;;;;5075001;28;20449;-49
2022/08/07 05:21:51;;;;;;;1.70;1.60;;;18.40;51.70;;;;;;5079202;28;20480;-50
2022/08/07 05:24:19;;;;;;;2.50;2.00;;;18.50;51.70;;;;;;5081147;28;20819;-49
2022/08/07 05:26:46;;;;;;;2.00;1.80;;;18.50;51.60;;;;;;5079041;28;20449;-48
2022/08/07 05:29:13;;;;;;;2.93;2.03;;;18.60;51.60;;;;;;5080851;28;20482;-46
2022/08/07 05:31:40;;;;;;;2.70;2.10;;;18.60;51.70;;;;;;5080402;28;20481;-49
2022/08/07 05:34:09;;;;;;;2.07;1.73;;;18.70;52.00;;;;;;5081453;28;20437;-48
2022/08/07 05:36:36;;;;;;;2.93;2.73;;;18.70;52.10;;;;;;5079919;28;20454;-47
2022/08/07 05:39:03;;;;;;;2.40;2.20;;;18.70;52.80;;;;;;5081052;28;20499;-48
2022/08/07 05:41:29;;;;;;;2.90;2.30;;;18.70;52.80;;;;;;5080283;28;20743;-49
2022/08/07 05:43:55;;;;;;;4.03;3.73;;;18.80;53.40;;;;;;5078631;28;20838;-49
2022/08/07 05:46:22;;;;;;;3.67;3.37;;;18.80;55.40;;;;;;5078698;28;20807;-48
2022/08/07 05:48:49;;;;;;;3.90;3.60;;;18.80;55.00;;;;;;5078391;28;20428;-47
2022/08/07 05:51:15;;;;;;;3.90;3.60;;;18.80;55.30;;;;;;5079748;28;20433;-48
2022/08/07 05:53:40;;;;;;;3.80;3.50;;;18.90;55.90;;;;;;5078415;28;20418;-47
2022/08/07 05:56:08;;;;;;;3.40;3.10;;;18.90;56.50;;;;;;5079646;28;20202;-48
2022/08/07 05:58:35;;;;;;;6.30;4.27;;;18.90;56.30;;;;;;5078421;28;20179;-49
2022/08/07 06:01:02;;;;;;;4.80;4.40;;;19.00;57.10;;;;;;5079149;28;20435;-48
2022/08/07 06:03:28;;;;;;;5.43;4.93;;;19.10;57.70;;;;;;5078436;28;20763;-48
2022/08/07 06:05:54;;;;;;;4.70;4.30;;;19.20;57.80;;;;;;5079254;28;20445;-47
2022/08/07 06:08:20;;;;;;;5.00;4.57;;;19.20;57.60;;;;;;5079850;28;20518;-47
2022/08/07 06:10:46;;;;;;;5.00;4.57;;;19.20;58.00;;;;;;5079549;28;20216;-49
2022/08/07 06:13:11;;;;;;;4.23;3.93;;;19.20;58.70;;;;;;5079376;28;20874;-49
2022/08/07 06:15:39;;;;;;;4.30;4.00;;;19.30;58.40;;;;;;5080396;28;20404;-50
2022/08/07 06:18:05;;;;;;;4.70;4.30;;;19.40;58.80;;;;;;5079754;28;20485;-51
2022/08/07 06:20:36;;;;;;;4.60;4.20;;;19.50;58.80;;;;;;5079822;28;20413;-48
2022/08/07 06:23:03;;;;;;;4.70;4.30;;;19.60;59.10;;;;;;5080391;28;20424;-49
2022/08/07 06:25:29;;;;;;;5.80;5.30;;;19.70;59.40;;;;;;5079609;28;20742;-50
2022/08/07 06:28:08;;;;;;;4.87;4.47;;;19.80;60.20;;;;;;5078937;28;20432;-50
2022/08/07 06:30:37;;;;;;;4.60;4.03;;;19.80;60.90;;;;;;5078800;28;20223;-47
2022/08/07 06:33:04;;;;;;;4.37;3.97;;;19.90;60.90;;;;;;5077790;28;20476;-49
2022/08/07 06:35:31;;;;;;;5.40;4.90;;;20.00;61.10;;;;;;5076994;28;20412;-50
2022/08/07 06:37:57;;;;;;;5.70;5.20;;;20.10;62.10;;;;;;5076187;28;20421;-49
2022/08/07 06:40:23;;;;;;;5.60;5.10;;;20.20;63.40;;;;;;5077566;28;20413;-50
2022/08/07 06:42:50;;;;;;;5.33;4.40;;;20.30;62.90;;;;;;5077437;28;20437;-48
2022/08/07 06:45:18;;;;;;;5.20;4.80;;;20.30;63.60;;;;;;5076253;28;20852;-49
2022/08/07 06:47:44;;;;;;;4.07;3.77;;;20.30;63.20;;;;;;5076431;28;20457;-51
2022/08/07 06:50:10;;;;;;;5.50;5.10;;;20.50;62.70;;;;;;5077752;28;20690;-50
2022/08/07 06:52:37;;;;;;;4.67;4.27;;;20.70;62.40;;;;;;5078356;28;20524;-48
2022/08/07 06:55:25;;;;;;;4.37;3.97;;;20.90;62.40;;;;;;5077387;28;20409;-51
2022/08/07 06:57:51;;;;;;;5.27;4.87;;;21.20;61.50;;;;;;5079318;28;20435;-48
2022/08/07 07:00:19;;;;;;;4.93;4.53;;;21.30;61.50;;;;;;5078546;28;20418;-52
2022/08/07 07:02:46;;;;;;;5.53;4.90;;;21.30;61.70;;;;;;5077102;28;20435;-49
2022/08/07 07:05:12;;;;;;;4.90;4.50;;;21.20;60.20;;;;;;5077160;28;20585;-51
2022/08/07 07:07:38;;;;;;;5.10;4.70;;;21.10;60.70;;;;;;5078054;28;20840;-52
2022/08/07 07:10:04;;;;;;;5.40;4.93;;;21.20;60.60;;;;;;5078617;28;20412;-51
2022/08/07 07:12:30;;;;;;;5.17;4.77;;;21.20;60.10;;;;;;5078447;28;20222;-53
2022/08/07 07:15:06;;;;;;;4.53;4.13;;;21.10;59.90;;;;;;5078797;28;20409;-50
2022/08/07 07:18:07;;;;;;;5.47;4.97;;;21.00;59.90;;;;;;5077977;28;20433;-49
2022/08/07 07:20:41;;;;;;;4.83;4.43;;;21.10;60.40;;;;;;5054691;28;20426;-50
2022/08/07 07:23:07;;;;;;;4.90;4.40;;;21.30;60.50;;;;;;5076833;28;20429;-53
2022/08/07 07:25:34;;;;;;;5.63;4.20;;;21.50;60.60;;;;;;5077439;28;20416;-49
2022/08/07 07:28:05;;;;;;;4.90;4.50;;;21.70;60.00;;;;;;5077530;28;20442;-49
2022/08/07 07:30:36;;;;;;;4.93;4.20;;;21.80;58.60;;;;;;5075990;28;20465;-50
2022/08/07 07:33:02;;;;;;;4.83;3.80;;;21.90;57.50;;;;;;5077097;28;20471;-48
2022/08/07 07:35:28;;;;;;;3.80;3.50;;;21.90;57.50;;;;;;5077467;28;20414;-50
2022/08/07 07:37:55;;;;;;;3.70;3.40;;;22.00;57.70;;;;;;5077703;28;20510;-51
2022/08/07 07:40:21;;;;;;;3.57;3.27;;;22.00;57.80;;;;;;5077236;28;20508;-48
2022/08/07 07:42:51;;;;;;;3.53;3.23;;;22.10;56.60;;;;;;5075881;28;20440;-49
2022/08/07 07:45:19;;;;;;;3.40;3.10;;;22.20;56.50;;;;;;5077673;28;20431;-49
2022/08/07 07:47:46;;;;;;;3.50;3.20;;;22.30;56.00;;;;;;5077838;28;20438;-51
2022/08/07 07:50:13;;;;;;;2.90;2.70;;;22.50;55.80;;;;;;5076484;28;20419;-51
2022/08/07 07:52:40;;;;;;;3.33;3.03;;;22.60;55.60;;;;;;5075436;28;20767;-47
2022/08/07 07:55:07;;;;;;;3.67;2.43;;;22.70;54.30;;;;;;5075530;28;20408;-52
2022/08/07 07:57:33;;;;;;;3.60;2.80;;;22.80;54.40;;;;;;5074744;28;20438;-48
2022/08/07 08:00:01;;;;;;;2.37;2.17;;;23.00;54.30;;;;;;5075196;28;20431;-50
2022/08/07 08:02:29;;;;;;;2.30;2.10;;;23.10;53.10;;;;;;5059063;28;20546;-50
2022/08/07 08:04:55;;;;;;;2.43;2.10;;;23.00;52.60;;;;;;5075930;28;20419;-50
2022/08/07 08:07:22;;;;;;;2.87;2.10;;;22.90;53.70;;;;;;5077335;28;20686;-50
2022/08/07 08:09:49;;;;;;;4.30;2.10;;;23.20;53.20;;;;;;5076400;28;20509;-52
2022/08/07 08:12:15;;;;;;;2.50;2.10;;;23.30;52.10;;;;;;5076486;28;20476;-51
2022/08/07 08:14:41;;;;;;;2.43;2.03;;;23.30;51.40;;;;;;5076756;28;20856;-49
2022/08/07 08:17:09;;;;;;;2.70;1.67;;;23.50;51.50;;;;;;5077659;28;20462;-50
2022/08/07 08:19:35;;;;;;;2.73;2.40;;;23.60;49.90;;;;;;5077279;28;20184;-53
2022/08/07 08:27:35;;;;;;;2.10;1.90;;;23.80;49.30;;;;;;5075989;28;20461;-49
2022/08/07 08:30:07;;;;;;;2.00;1.80;;;24.10;48.80;;;;;;5076676;28;20468;-48
2022/08/07 08:32:39;;;;;;;3.67;1.80;;;24.00;48.70;;;;;;5059105;28;20813;-51
2022/08/07 08:35:08;;;;;;;2.33;1.87;;;24.10;48.70;;;;;;5075756;28;20426;-48
2022/08/07 08:37:35;;;;;;;3.63;1.73;;;23.80;48.10;;;;;;5076457;28;20494;-53
2022/08/07 08:40:01;;;;;;;2.07;1.77;;;23.90;49.00;;;;;;5059715;28;20456;-48
2022/08/07 08:42:42;;;;;;;3.47;1.87;;;24.10;48.40;;;;;;5076200;28;20441;-49
2022/08/07 08:45:17;;;;;;;3.20;2.27;;;24.20;48.00;;;;;;5076528;28;20415;-52
2022/08/07 08:47:48;;;;;;;1.87;1.40;;;24.50;48.80;;;;;;5077226;28;20540;-51
2022/08/07 08:50:24;;;;;;;2.57;1.70;;;25.00;47.70;;;;;;5076119;28;20423;-50
2022/08/07 08:53:05;;;;;;;3.63;2.60;;;25.60;48.10;;;;;;5076451;28;20547;-50
2022/08/07 08:55:46;;;;;;;3.00;1.80;;;26.10;46.40;;;;;;5076715;28;20417;-52
2022/08/07 08:58:12;;;;;;;2.40;1.90;;;26.50;45.70;;;;;;5076192;28;20516;-54
2022/08/07 09:00:43;;;;;;;2.60;2.20;;;26.50;45.10;;;;;;5059009;28;20420;-52
2022/08/07 09:03:24;;;;;;;2.60;2.17;;;26.50;45.60;;;;;;5075305;28;20410;-49
2022/08/07 09:06:05;;;;;;;3.07;2.07;;;26.70;45.60;;;;;;5074117;28;20524;-51
2022/08/07 09:08:36;;;;;;;2.67;1.90;;;26.80;44.20;;;;;;5076179;28;20408;-49
2022/08/07 09:11:16;;;;;;;3.50;2.60;;;26.50;44.50;;;;;;5075155;28;20481;-52
2022/08/07 09:14:02;;;;;;;2.77;2.20;;;25.60;44.80;;;;;;5074811;28;20484;-53
2022/08/07 09:16:46;;;;;;;2.20;1.77;;;25.20;45.90;;;;;;5074978;28;20437;-50
2022/08/07 09:19:36;;;;;;;2.07;1.87;;;25.20;46.60;;;;;;5073930;28;20414;-49
2022/08/07 09:22:32;;;;;;;2.17;1.67;;;25.60;45.70;;;;;;5074951;28;20504;-49
2022/08/07 09:25:10;;;;;;;2.30;2.10;;;25.90;46.40;;;;;;5074736;28;20414;-50
2022/08/07 09:27:51;;;;;;;2.37;2.17;;;26.60;45.60;;;;;;5074680;28;20443;-49
2022/08/07 09:30:19;;;;;;;1.90;1.80;;;26.60;44.40;;;;;;5074645;28;20574;-49
2022/08/07 09:33:00;;;;;;;4.07;2.40;;;26.80;44.40;;;;;;5069325;28;20511;-49
2022/08/07 09:35:45;;;;;;;2.20;2.00;;;27.00;44.70;;;;;;5070755;28;20485;-49
2022/08/07 09:38:42;;;;;;;2.20;2.00;;;27.40;44.00;;;;;;5074802;28;20459;-49
2022/08/07 09:41:23;;;;;;;2.47;2.27;;;27.90;44.80;;;;;;5074673;28;20459;-50
2022/08/07 09:44:36;;;;;;;2.90;2.17;;;28.50;44.20;;;;;;5074709;28;20426;-51
2022/08/07 09:47:22;;;;;;;2.10;1.90;;;29.10;42.90;;;;;;5071455;28;20505;-49
2022/08/07 09:50:06;;;;;;;3.70;2.10;;;29.50;41.10;;;;;;5075849;28;20419;-48
2022/08/07 09:52:38;;;;;;;2.20;1.73;;;29.60;40.60;;;;;;5074684;28;20482;-51
2022/08/07 09:55:09;;;;;;;2.10;1.73;;;29.80;39.40;;;;;;5072610;28;20550;-50
2022/08/07 09:57:53;;;;;;;2.23;2.00;;;30.20;38.20;;;;;;5074588;28;20870;-49
2022/08/07 10:00:20;;;;;;;1.70;1.60;;;30.30;38.10;;;;;;5073062;28;20890;-51
2022/08/07 10:03:19;;;;;;;1.60;1.50;;;30.30;36.10;;;;;;5073158;28;20868;-55
2022/08/07 10:06:23;;;;;;;2.03;1.37;;;30.50;36.00;;;;;;5063935;28;20418;-52
2022/08/07 10:09:26;;;;;;;2.07;1.80;;;30.30;34.70;;;;;;5067484;28;20530;-55
2022/08/07 10:11:59;;;;;;;1.90;1.70;;;29.80;36.30;;;;;;5065198;28;21167;-51
2022/08/07 10:14:39;;;;;;;2.23;1.77;;;29.70;36.00;;;;;;5077075;28;20420;-53
2022/08/07 10:17:16;;;;;;;1.57;1.40;;;29.90;36.60;;;;;;5077098;28;20428;-50
2022/08/07 10:19:54;;;;;;;2.10;1.60;;;29.90;35.60;;;;;;5074961;28;20418;-50
2022/08/07 10:22:32;;;;;;;1.63;1.43;;;30.10;35.30;;;;;;5073699;28;20444;-53
2022/08/07 10:25:20;;;;;;;2.10;1.70;;;29.10;35.20;;;;;;5077315;28;20488;-50
2022/08/07 10:28:01;;;;;;;1.77;1.57;;;29.10;36.40;;;;;;5077609;28;20398;-50
2022/08/07 10:30:49;;;;;;;3.90;1.70;;;29.30;36.50;;;;;;5079214;28;20446;-53
2022/08/07 10:33:32;;;;;;;2.30;1.43;;;29.90;36.90;;;;;;5078449;28;20467;-50
2022/08/07 10:36:10;;;;;;;2.10;1.43;;;30.50;36.40;;;;;;5078743;28;20439;-49
2022/08/07 10:38:39;;;;;;;1.93;1.60;;;31.00;35.10;;;;;;5078541;28;20476;-47
2022/08/07 10:41:15;;;;;;;2.93;1.40;;;31.50;34.80;;;;;;5077996;28;20714;-47
2022/08/07 10:44:08;;;;;;;1.83;1.63;;;32.00;34.60;;;;;;5077681;28;20472;-46
2022/08/07 10:46:51;;;;;;;1.80;1.53;;;32.30;33.20;;;;;;5076826;28;20440;-47
2022/08/07 10:49:29;;;;;;;1.90;1.33;;;32.10;31.60;;;;;;5077264;28;20664;-48
2022/08/07 10:52:04;;;;;;;1.40;1.10;;;32.00;32.50;;;;;;5077161;28;20492;-48
2022/08/07 10:54:42;;;;;;;1.40;1.20;;;32.40;32.50;;;;;;5078641;28;20480;-47
2022/08/07 10:57:24;;;;;;;1.70;1.37;;;32.80;32.30;;;;;;5076479;28;20447;-48
2022/08/07 11:00:08;;;;;;;1.80;1.43;;;33.40;31.60;;;;;;5077794;28;20416;-47
2022/08/07 11:02:49;;;;;;;2.00;1.30;;;33.70;31.10;;;;;;5078512;28;20422;-54
2022/08/07 11:05:53;;;;;;;1.70;1.47;;;33.60;30.50;;;;;;5079212;28;20406;-57
2022/08/07 11:08:55;;;;;;;1.80;1.57;;;33.20;30.80;;;;;;5079692;28;20422;-56
2022/08/07 11:11:26;;;;;;;1.93;1.40;;;33.30;31.00;;;;;;5078994;28;20438;-57
2022/08/07 11:14:07;;;;;;;2.00;1.23;;;33.30;30.00;;;;;;5075566;28;20398;-53
2022/08/07 11:16:38;;;;;;;2.40;1.40;;;33.50;30.70;;;;;;5076489;28;20424;-57
2022/08/07 11:19:13;;;;;;;1.70;1.40;;;34.10;30.40;;;;;;5075823;28;20426;-54
2022/08/07 11:21:57;;;;;;;1.40;1.10;;;34.60;30.70;;;;;;5074981;28;20830;-54
2022/08/07 11:24:48;;;;;;;1.50;1.10;;;34.70;28.90;;;;;;5075504;28;20397;-57
2022/08/07 11:27:21;;;;;;;1.50;1.20;;;34.00;28.90;;;;;;5056057;28;20831;-58
2022/08/07 11:30:04;;;;;;;2.20;1.27;;;33.70;29.90;;;;;;5056250;28;20533;-54
2022/08/07 11:32:33;;;;;;;2.70;1.50;;;33.30;30.00;;;;;;5058052;28;20488;-55
2022/08/07 11:35:39;;;;;;;2.13;1.50;;;33.70;29.90;;;;;;5057822;28;20661;-54
2022/08/07 11:38:21;;;;;;;1.60;1.40;;;34.10;28.80;;;;;;5033213;28;20567;-57
2022/08/07 11:40:57;;;;;;;2.30;1.33;;;33.90;29.70;;;;;;5017247;28;20432;-56
2022/08/07 11:43:31;;;;;;;1.40;1.07;;;33.30;28.70;;;;;;5047998;28;20775;-57
2022/08/07 11:46:18;;;;;;;1.20;1.00;;;33.00;29.80;;;;;;5055149;28;20405;-54
2022/08/07 11:48:46;;;;;;;1.83;1.40;;;33.00;29.50;;;;;;5054756;28;20461;-58
2022/08/07 11:51:15;;;;;;;1.60;1.40;;;33.10;29.10;;;;;;5055300;28;20680;-54
2022/08/07 11:53:49;;;;;;;1.60;1.30;;;32.00;29.60;;;;;;5055387;28;20517;-56
2022/08/07 11:56:15;;;;;;;2.73;1.37;;;31.60;29.70;;;;;;5071013;28;20435;-57
2022/08/07 11:59:15;;;;;;;1.47;1.37;;;31.30;29.70;;;;;;5075091;28;20397;-57
2022/08/07 12:01:55;;;;;;;4.07;1.40;;;31.30;30.20;;;;;;5077811;28;20189;-57
2022/08/07 12:04:45;;;;;;;2.17;1.60;;;30.50;30.80;;;;;;5077914;28;20378;-58
2022/08/07 12:07:40;;;;;;;1.73;1.40;;;29.80;31.20;;;;;;5076817;28;20447;-57
2022/08/07 12:10:44;;;;;;;1.80;1.37;;;30.00;31.50;;;;;;5077620;28;20419;-58
2022/08/07 12:13:39;;;;;;;2.40;1.37;;;30.70;31.30;;;;;;5066088;28;20446;-60
2022/08/07 12:16:09;;;;;;;1.77;1.27;;;31.50;32.00;;;;;;5076541;28;20439;-59
2022/08/07 12:18:46;;;;;;;1.40;1.30;;;32.20;30.60;;;;;;5065671;28;20445;-58
2022/08/07 12:21:49;;;;;;;1.50;1.40;;;32.70;30.00;;;;;;5075364;28;20414;-59
2022/08/07 12:24:34;;;;;;;1.53;1.23;;;33.50;29.70;;;;;;5075961;28;20474;-59
2022/08/07 12:27:14;;;;;;;1.40;1.30;;;34.10;29.60;;;;;;5074800;28;20426;-59
2022/08/07 12:30:04;;;;;;;1.70;1.40;;;34.60;28.50;;;;;;5072210;28;20451;-59
2022/08/07 12:32:52;;;;;;;1.50;1.40;;;34.60;29.60;;;;;;5074590;28;20746;-59
2022/08/07 12:35:18;;;;;;;1.63;1.33;;;34.60;29.30;;;;;;5074169;28;20740;-59
2022/08/07 12:37:47;;;;;;;2.30;1.40;;;35.10;29.30;;;;;;5073561;28;20407;-58
2022/08/07 12:40:16;;;;;;;1.40;1.10;;;35.30;29.10;;;;;;5074736;28;20840;-59
2022/08/07 12:42:43;;;;;;;1.73;1.27;;;35.80;28.80;;;;;;5075772;28;20450;-58
2022/08/07 12:45:17;;;;;;;1.60;1.13;;;36.20;28.80;;;;;;5075077;28;20756;-59
2022/08/07 12:47:52;;;;;;;1.93;1.60;;;36.60;28.80;;;;;;5075614;28;20839;-59
2022/08/07 12:50:26;;;;;;;1.57;1.47;;;36.70;28.70;;;;;;5076182;28;20424;-61
2022/08/07 12:53:16;;;;;;;2.60;1.53;;;36.90;27.20;;;;;;5075617;28;20777;-59
2022/08/07 12:56:08;;;;;;;1.60;1.50;;;35.50;27.60;;;;;;5075712;28;20385;-57
2022/08/07 12:58:41;;;;;;;1.90;1.57;;;34.20;28.50;;;;;;5075795;28;20727;-59
2022/08/07 13:01:27;;;;;;;2.00;1.70;;;33.00;29.10;;;;;;5075786;28;20792;-59
2022/08/07 13:04:17;;;;;;;1.73;1.60;;;32.90;31.30;;;;;;5076313;28;20813;-59
2022/08/07 13:07:21;;;;;;;2.00;1.50;;;33.60;30.00;;;;;;5073865;28;20437;-59
2022/08/07 13:10:15;;;;;;;2.17;1.53;;;34.50;29.00;;;;;;5073863;28;20411;-60
2022/08/07 13:13:01;;;;;;;1.80;1.23;;;35.00;28.80;;;;;;5075253;28;20868;-59
2022/08/07 13:15:52;;;;;;;1.67;1.20;;;35.50;29.30;;;;;;5074556;28;20624;-60
2022/08/07 13:18:38;;;;;;;2.60;1.40;;;35.90;28.50;;;;;;5073294;28;20470;-57
2022/08/07 13:21:17;;;;;;;1.80;1.33;;;36.50;28.80;;;;;;5074845;28;20410;-59